This is the latest recevied weather packets stored in our database for station/object KE9DBJ. If no packets are shown the sender has not sent any weather packets the latest 10 day(s).
| Time | Temp. | Humidity | Pressure | Rain* | Wind** | Luminosity | Snow |
|---|---|---|---|---|---|---|---|
| 1777287316 | 7.22° C | 99% | 1016.1 hPa | 0 mm | - | - | - |
| 1777284938 | 7.22° C | 99% | 1016.1 hPa | 0 mm | - | - | - |
| 1777281924 | 7.78° C | 99% | 1016.7 hPa | 0 mm | - | - | - |
| 1777280120 | 7.22° C | 99% | 1017 hPa | 0 mm | - | - | - |
| 1777276546 | 8.33° C | 99% | 1016.3 hPa | 0 mm | - | - | - |
| 1777275323 | 7.78° C | 99% | 1016.6 hPa | 0 mm | - | - | - |
| 1777272918 | 8.89° C | 99% | 1016.6 hPa | 0 mm | - | - | - |
| 1777270526 | 8.33° C | 99% | 1016.7 hPa | 0 mm | - | - | - |
| 1777265749 | 9.44° C | 99% | 1017.2 hPa | 0 mm | - | - | - |
| 1777263330 | 10° C | 99% | 1017.2 hPa | 0 mm | - | - | - |
| 1777257919 | 11.11° C | 98% | 1016.3 hPa | 0 mm | - | - | - |
| 1777256749 | 11.11° C | 93% | 1016.3 hPa | 0 mm | - | - | - |
| 1777254926 | 12.22° C | 90% | 1016.1 hPa | 0 mm | - | - | - |
| 1777252527 | 13.33° C | 85% | 1015.8 hPa | 0 mm | - | - | - |
| 1777251952 | 13.33° C | 82% | 1015.8 hPa | 0 mm | - | - | - |
| 1777250129 | 15.56° C | 72% | 1015.7 hPa | 0 mm | - | - | - |
| 1777244718 | 20° C | 55% | 1015.4 hPa | 0 mm | - | - | - |
| 1777239326 | 20.56° C | 54% | 1015.3 hPa | 0 mm | - | - | - |
| 1777238731 | 20.56° C | 54% | 1015.3 hPa | 0 mm | - | - | - |
| 1777238118 | 20.56° C | 53% | 1015.4 hPa | 0 mm | - | - | - |
| 1777235719 | 21.67° C | 51% | 1015.5 hPa | 0 mm | - | - | - |
| 1777227315 | 20° C | 56% | 1017 hPa | 0 mm | - | - | - |
| 1777226720 | 19.44° C | 56% | 1017 hPa | 0 mm | - | - | - |
| 1777224916 | 18.89° C | 57% | 1017.2 hPa | 0 mm | - | - | - |
| 1777223726 | 18.89° C | 59% | 1017.3 hPa | 0 mm | - | - | - |
* Rain latest hour (hover to see other rain measurements)
** Current wind speed in m/s (hover to see current wind gust speed)